sensor_id;sensor_type;location;lat;lon;timestamp;P1;durP1;ratioP1;P2;durP2;ratioP2
12986;SDS011;58897;51.960;5.582;2023-12-04T00:01:50;16.40;;;7.80;;
12986;SDS011;58897;51.960;5.582;2023-12-04T00:04:17;13.77;;;4.97;;
12986;SDS011;58897;51.960;5.582;2023-12-04T00:06:43;13.67;;;6.20;;
12986;SDS011;58897;51.960;5.582;2023-12-04T00:09:10;21.83;;;8.00;;
12986;SDS011;58897;51.960;5.582;2023-12-04T00:11:37;19.10;;;8.57;;
12986;SDS011;58897;51.960;5.582;2023-12-04T00:14:04;21.20;;;8.50;;
12986;SDS011;58897;51.960;5.582;2023-12-04T00:16:33;22.70;;;8.37;;
12986;SDS011;58897;51.960;5.582;2023-12-04T00:19:01;23.23;;;8.10;;
12986;SDS011;58897;51.960;5.582;2023-12-04T00:21:28;17.33;;;6.97;;
12986;SDS011;58897;51.960;5.582;2023-12-04T00:23:55;19.37;;;7.67;;
12986;SDS011;58897;51.960;5.582;2023-12-04T00:26:22;25.17;;;10.10;;
12986;SDS011;58897;51.960;5.582;2023-12-04T00:28:48;18.47;;;7.37;;
12986;SDS011;58897;51.960;5.582;2023-12-04T00:31:15;20.13;;;7.57;;
12986;SDS011;58897;51.960;5.582;2023-12-04T00:33:42;17.27;;;7.77;;
12986;SDS011;58897;51.960;5.582;2023-12-04T00:36:09;20.83;;;9.03;;
12986;SDS011;58897;51.960;5.582;2023-12-04T00:38:36;18.33;;;7.83;;
12986;SDS011;58897;51.960;5.582;2023-12-04T00:41:03;17.77;;;7.23;;
12986;SDS011;58897;51.960;5.582;2023-12-04T00:43:30;19.33;;;7.70;;
12986;SDS011;58897;51.960;5.582;2023-12-04T00:45:59;16.30;;;5.87;;
12986;SDS011;58897;51.960;5.582;2023-12-04T00:48:26;15.53;;;7.20;;
12986;SDS011;58897;51.960;5.582;2023-12-04T00:50:54;20.67;;;8.23;;
12986;SDS011;58897;51.960;5.582;2023-12-04T00:53:21;19.10;;;8.43;;
12986;SDS011;58897;51.960;5.582;2023-12-04T00:55:47;21.60;;;8.50;;
12986;SDS011;58897;51.960;5.582;2023-12-04T00:58:14;17.63;;;6.77;;
12986;SDS011;58897;51.960;5.582;2023-12-04T01:00:41;17.50;;;7.93;;
12986;SDS011;58897;51.960;5.582;2023-12-04T01:03:08;22.53;;;8.47;;
12986;SDS011;58897;51.960;5.582;2023-12-04T01:05:34;22.93;;;8.73;;
12986;SDS011;58897;51.960;5.582;2023-12-04T01:08:01;23.00;;;8.93;;
12986;SDS011;58897;51.960;5.582;2023-12-04T01:10:28;20.17;;;7.70;;
12986;SDS011;58897;51.960;5.582;2023-12-04T01:12:55;17.77;;;6.60;;
12986;SDS011;58897;51.960;5.582;2023-12-04T01:15:21;17.00;;;6.73;;
12986;SDS011;58897;51.960;5.582;2023-12-04T01:17:50;17.23;;;7.13;;
12986;SDS011;58897;51.960;5.582;2023-12-04T01:20:17;20.40;;;8.33;;
12986;SDS011;58897;51.960;5.582;2023-12-04T01:22:43;18.67;;;8.00;;
12986;SDS011;58897;51.960;5.582;2023-12-04T01:25:10;9.03;;;3.73;;
12986;SDS011;58897;51.960;5.582;2023-12-04T01:27:37;17.77;;;7.53;;
12986;SDS011;58897;51.960;5.582;2023-12-04T01:30:05;21.47;;;8.70;;
12986;SDS011;58897;51.960;5.582;2023-12-04T01:32:35;11.53;;;3.57;;
12986;SDS011;58897;51.960;5.582;2023-12-04T01:35:01;20.17;;;7.67;;
12986;SDS011;58897;51.960;5.582;2023-12-04T01:37:28;20.77;;;8.33;;
12986;SDS011;58897;51.960;5.582;2023-12-04T01:39:55;19.60;;;8.70;;
12986;SDS011;58897;51.960;5.582;2023-12-04T01:42:22;17.20;;;8.00;;
12986;SDS011;58897;51.960;5.582;2023-12-04T01:44:48;19.07;;;7.63;;
12986;SDS011;58897;51.960;5.582;2023-12-04T01:47:15;16.63;;;7.50;;
12986;SDS011;58897;51.960;5.582;2023-12-04T01:49:42;21.53;;;8.83;;
12986;SDS011;58897;51.960;5.582;2023-12-04T01:52:09;17.27;;;7.50;;
12986;SDS011;58897;51.960;5.582;2023-12-04T01:54:36;18.57;;;8.27;;
12986;SDS011;58897;51.960;5.582;2023-12-04T01:57:03;17.03;;;5.77;;
12986;SDS011;58897;51.960;5.582;2023-12-04T01:59:32;18.90;;;7.73;;
12986;SDS011;58897;51.960;5.582;2023-12-04T02:01:59;17.53;;;7.27;;
12986;SDS011;58897;51.960;5.582;2023-12-04T02:04:27;20.70;;;8.33;;
12986;SDS011;58897;51.960;5.582;2023-12-04T02:06:53;19.40;;;7.73;;
12986;SDS011;58897;51.960;5.582;2023-12-04T02:09:20;15.87;;;6.90;;
12986;SDS011;58897;51.960;5.582;2023-12-04T02:11:47;15.60;;;7.13;;
12986;SDS011;58897;51.960;5.582;2023-12-04T02:14:14;18.87;;;8.53;;
12986;SDS011;58897;51.960;5.582;2023-12-04T02:16:41;18.13;;;7.50;;
12986;SDS011;58897;51.960;5.582;2023-12-04T02:19:13;15.57;;;6.73;;
12986;SDS011;58897;51.960;5.582;2023-12-04T02:21:40;16.10;;;8.40;;
12986;SDS011;58897;51.960;5.582;2023-12-04T02:24:06;20.93;;;6.83;;
12986;SDS011;58897;51.960;5.582;2023-12-04T02:26:39;18.90;;;8.57;;
12986;SDS011;58897;51.960;5.582;2023-12-04T02:29:32;9.13;;;4.83;;
12986;SDS011;58897;51.960;5.582;2023-12-04T02:32:05;18.53;;;8.57;;
12986;SDS011;58897;51.960;5.582;2023-12-04T02:34:35;15.13;;;6.67;;
12986;SDS011;58897;51.960;5.582;2023-12-04T02:37:03;19.70;;;7.97;;
12986;SDS011;58897;51.960;5.582;2023-12-04T02:39:31;15.33;;;7.70;;
12986;SDS011;58897;51.960;5.582;2023-12-04T02:41:58;19.60;;;8.50;;
12986;SDS011;58897;51.960;5.582;2023-12-04T02:44:24;17.53;;;7.93;;
12986;SDS011;58897;51.960;5.582;2023-12-04T02:46:51;25.20;;;9.03;;
12986;SDS011;58897;51.960;5.582;2023-12-04T02:49:18;18.27;;;7.67;;
12986;SDS011;58897;51.960;5.582;2023-12-04T02:51:44;18.60;;;7.20;;
12986;SDS011;58897;51.960;5.582;2023-12-04T02:54:11;18.67;;;7.40;;
12986;SDS011;58897;51.960;5.582;2023-12-04T02:56:38;14.57;;;6.97;;
12986;SDS011;58897;51.960;5.582;2023-12-04T02:59:04;18.50;;;7.87;;
12986;SDS011;58897;51.960;5.582;2023-12-04T03:01:31;15.03;;;6.20;;
12986;SDS011;58897;51.960;5.582;2023-12-04T03:03:57;18.37;;;7.33;;
12986;SDS011;58897;51.960;5.582;2023-12-04T03:06:24;23.70;;;8.27;;
12986;SDS011;58897;51.960;5.582;2023-12-04T03:08:51;15.43;;;6.57;;
12986;SDS011;58897;51.960;5.582;2023-12-04T03:11:18;15.20;;;6.87;;
12986;SDS011;58897;51.960;5.582;2023-12-04T03:13:44;16.17;;;7.80;;
12986;SDS011;58897;51.960;5.582;2023-12-04T03:16:14;13.40;;;5.93;;
12986;SDS011;58897;51.960;5.582;2023-12-04T03:18:45;14.03;;;6.73;;
12986;SDS011;58897;51.960;5.582;2023-12-04T03:21:12;16.43;;;6.80;;
12986;SDS011;58897;51.960;5.582;2023-12-04T03:23:39;15.97;;;6.33;;
12986;SDS011;58897;51.960;5.582;2023-12-04T03:26:06;22.57;;;8.60;;
12986;SDS011;58897;51.960;5.582;2023-12-04T03:28:32;14.97;;;6.73;;
12986;SDS011;58897;51.960;5.582;2023-12-04T03:30:59;16.67;;;6.87;;
12986;SDS011;58897;51.960;5.582;2023-12-04T03:33:26;17.07;;;6.37;;
12986;SDS011;58897;51.960;5.582;2023-12-04T03:35:52;17.37;;;7.10;;
12986;SDS011;58897;51.960;5.582;2023-12-04T03:38:19;13.17;;;6.80;;
12986;SDS011;58897;51.960;5.582;2023-12-04T03:40:46;13.70;;;5.37;;
12986;SDS011;58897;51.960;5.582;2023-12-04T03:43:12;18.43;;;7.50;;
12986;SDS011;58897;51.960;5.582;2023-12-04T03:45:39;19.13;;;6.53;;
12986;SDS011;58897;51.960;5.582;2023-12-04T03:48:05;17.53;;;6.57;;
12986;SDS011;58897;51.960;5.582;2023-12-04T03:50:32;15.77;;;6.53;;
12986;SDS011;58897;51.960;5.582;2023-12-04T03:52:59;19.40;;;7.33;;
12986;SDS011;58897;51.960;5.582;2023-12-04T03:55:25;12.57;;;5.33;;
12986;SDS011;58897;51.960;5.582;2023-12-04T03:57:53;14.73;;;6.30;;
12986;SDS011;58897;51.960;5.582;2023-12-04T04:00:20;12.87;;;5.70;;
12986;SDS011;58897;51.960;5.582;2023-12-04T04:02:47;12.87;;;5.53;;
12986;SDS011;58897;51.960;5.582;2023-12-04T04:05:13;13.27;;;5.90;;
12986;SDS011;58897;51.960;5.582;2023-12-04T04:07:40;14.90;;;6.97;;
12986;SDS011;58897;51.960;5.582;2023-12-04T04:10:08;18.27;;;6.57;;
12986;SDS011;58897;51.960;5.582;2023-12-04T04:12:35;16.83;;;6.73;;
12986;SDS011;58897;51.960;5.582;2023-12-04T04:15:02;13.43;;;5.40;;
12986;SDS011;58897;51.960;5.582;2023-12-04T04:17:29;12.83;;;6.27;;
12986;SDS011;58897;51.960;5.582;2023-12-04T04:19:56;20.97;;;7.53;;
12986;SDS011;58897;51.960;5.582;2023-12-04T04:22:23;11.33;;;5.97;;
12986;SDS011;58897;51.960;5.582;2023-12-04T04:24:49;13.37;;;6.63;;
12986;SDS011;58897;51.960;5.582;2023-12-04T04:27:16;17.93;;;6.67;;
12986;SDS011;58897;51.960;5.582;2023-12-04T04:29:43;13.60;;;6.27;;
12986;SDS011;58897;51.960;5.582;2023-12-04T04:32:09;19.73;;;7.27;;
12986;SDS011;58897;51.960;5.582;2023-12-04T04:34:39;11.80;;;5.50;;
12986;SDS011;58897;51.960;5.582;2023-12-04T04:37:06;14.73;;;5.97;;
12986;SDS011;58897;51.960;5.582;2023-12-04T04:39:33;16.43;;;5.57;;
12986;SDS011;58897;51.960;5.582;2023-12-04T04:41:59;12.77;;;5.30;;
12986;SDS011;58897;51.960;5.582;2023-12-04T04:44:26;15.73;;;6.47;;
12986;SDS011;58897;51.960;5.582;2023-12-04T04:46:53;17.30;;;6.33;;
12986;SDS011;58897;51.960;5.582;2023-12-04T04:49:19;13.57;;;6.47;;
12986;SDS011;58897;51.960;5.582;2023-12-04T04:51:46;12.63;;;5.43;;
12986;SDS011;58897;51.960;5.582;2023-12-04T04:54:13;17.93;;;6.57;;
12986;SDS011;58897;51.960;5.582;2023-12-04T04:56:40;10.63;;;5.10;;
12986;SDS011;58897;51.960;5.582;2023-12-04T04:59:06;16.33;;;6.40;;
12986;SDS011;58897;51.960;5.582;2023-12-04T05:01:33;11.50;;;4.23;;
12986;SDS011;58897;51.960;5.582;2023-12-04T05:03:59;12.23;;;5.80;;
12986;SDS011;58897;51.960;5.582;2023-12-04T05:06:26;21.33;;;7.13;;
12986;SDS011;58897;51.960;5.582;2023-12-04T05:08:53;19.07;;;6.43;;
12986;SDS011;58897;51.960;5.582;2023-12-04T05:11:20;8.07;;;4.30;;
12986;SDS011;58897;51.960;5.582;2023-12-04T05:13:46;14.53;;;6.30;;
12986;SDS011;58897;51.960;5.582;2023-12-04T05:16:14;18.17;;;6.97;;
12986;SDS011;58897;51.960;5.582;2023-12-04T05:18:41;12.87;;;5.97;;
12986;SDS011;58897;51.960;5.582;2023-12-04T05:21:08;13.17;;;5.40;;
12986;SDS011;58897;51.960;5.582;2023-12-04T05:23:36;14.63;;;5.87;;
12986;SDS011;58897;51.960;5.582;2023-12-04T05:26:03;13.03;;;6.10;;
12986;SDS011;58897;51.960;5.582;2023-12-04T05:28:31;12.70;;;5.57;;
12986;SDS011;58897;51.960;5.582;2023-12-04T05:30:58;13.33;;;5.97;;
12986;SDS011;58897;51.960;5.582;2023-12-04T05:33:25;19.10;;;6.43;;
12986;SDS011;58897;51.960;5.582;2023-12-04T05:35:52;14.83;;;5.63;;
12986;SDS011;58897;51.960;5.582;2023-12-04T05:38:19;15.57;;;5.97;;
12986;SDS011;58897;51.960;5.582;2023-12-04T05:40:46;12.30;;;5.23;;
12986;SDS011;58897;51.960;5.582;2023-12-04T05:43:12;15.70;;;5.20;;
12986;SDS011;58897;51.960;5.582;2023-12-04T05:45:39;11.90;;;5.53;;
12986;SDS011;58897;51.960;5.582;2023-12-04T05:48:06;12.10;;;5.33;;
12986;SDS011;58897;51.960;5.582;2023-12-04T05:50:33;11.07;;;5.23;;
12986;SDS011;58897;51.960;5.582;2023-12-04T05:53:00;15.13;;;5.77;;
12986;SDS011;58897;51.960;5.582;2023-12-04T05:55:27;12.23;;;5.87;;
12986;SDS011;58897;51.960;5.582;2023-12-04T05:57:53;10.70;;;4.13;;
12986;SDS011;58897;51.960;5.582;2023-12-04T06:00:20;14.03;;;5.80;;
12986;SDS011;58897;51.960;5.582;2023-12-04T06:02:51;16.70;;;5.77;;
12986;SDS011;58897;51.960;5.582;2023-12-04T06:05:18;16.70;;;5.87;;
12986;SDS011;58897;51.960;5.582;2023-12-04T06:07:45;14.00;;;6.03;;
12986;SDS011;58897;51.960;5.582;2023-12-04T06:10:12;16.77;;;6.17;;
12986;SDS011;58897;51.960;5.582;2023-12-04T06:12:38;12.50;;;5.10;;
12986;SDS011;58897;51.960;5.582;2023-12-04T06:15:05;10.83;;;5.07;;
12986;SDS011;58897;51.960;5.582;2023-12-04T06:17:32;12.60;;;5.07;;
12986;SDS011;58897;51.960;5.582;2023-12-04T06:19:59;12.43;;;5.33;;
12986;SDS011;58897;51.960;5.582;2023-12-04T06:22:26;11.70;;;5.17;;
12986;SDS011;58897;51.960;5.582;2023-12-04T06:24:53;11.83;;;5.53;;
12986;SDS011;58897;51.960;5.582;2023-12-04T06:27:20;13.77;;;5.40;;
12986;SDS011;58897;51.960;5.582;2023-12-04T06:29:48;10.73;;;4.87;;
12986;SDS011;58897;51.960;5.582;2023-12-04T06:32:18;10.73;;;4.53;;
12986;SDS011;58897;51.960;5.582;2023-12-04T06:34:46;15.87;;;5.90;;
12986;SDS011;58897;51.960;5.582;2023-12-04T06:37:13;13.40;;;4.37;;
12986;SDS011;58897;51.960;5.582;2023-12-04T06:39:40;11.47;;;4.87;;
12986;SDS011;58897;51.960;5.582;2023-12-04T06:42:08;10.47;;;4.90;;
12986;SDS011;58897;51.960;5.582;2023-12-04T06:44:36;6.57;;;2.87;;
12986;SDS011;58897;51.960;5.582;2023-12-04T06:47:02;13.20;;;4.83;;
12986;SDS011;58897;51.960;5.582;2023-12-04T06:49:31;10.13;;;5.03;;
12986;SDS011;58897;51.960;5.582;2023-12-04T06:51:59;11.33;;;5.33;;
12986;SDS011;58897;51.960;5.582;2023-12-04T06:54:27;9.27;;;3.70;;
12986;SDS011;58897;51.960;5.582;2023-12-04T06:56:53;13.40;;;5.50;;
12986;SDS011;58897;51.960;5.582;2023-12-04T06:59:20;16.60;;;5.77;;
12986;SDS011;58897;51.960;5.582;2023-12-04T07:01:47;9.37;;;4.43;;
12986;SDS011;58897;51.960;5.582;2023-12-04T07:04:15;10.93;;;4.80;;
12986;SDS011;58897;51.960;5.582;2023-12-04T07:06:47;14.97;;;5.77;;
12986;SDS011;58897;51.960;5.582;2023-12-04T07:09:15;13.20;;;5.17;;
12986;SDS011;58897;51.960;5.582;2023-12-04T07:11:43;8.67;;;3.60;;
12986;SDS011;58897;51.960;5.582;2023-12-04T07:14:10;15.27;;;5.63;;
12986;SDS011;58897;51.960;5.582;2023-12-04T07:16:42;13.43;;;4.73;;
12986;SDS011;58897;51.960;5.582;2023-12-04T07:19:09;15.00;;;4.53;;
12986;SDS011;58897;51.960;5.582;2023-12-04T07:21:37;10.37;;;4.67;;
12986;SDS011;58897;51.960;5.582;2023-12-04T07:24:04;10.97;;;5.13;;
12986;SDS011;58897;51.960;5.582;2023-12-04T07:26:31;15.03;;;5.20;;
12986;SDS011;58897;51.960;5.582;2023-12-04T07:28:59;8.47;;;4.40;;
12986;SDS011;58897;51.960;5.582;2023-12-04T07:31:26;10.93;;;4.87;;
12986;SDS011;58897;51.960;5.582;2023-12-04T07:33:53;11.77;;;4.60;;
12986;SDS011;58897;51.960;5.582;2023-12-04T07:36:21;11.87;;;5.00;;
12986;SDS011;58897;51.960;5.582;2023-12-04T07:38:48;13.03;;;4.87;;
12986;SDS011;58897;51.960;5.582;2023-12-04T07:41:15;9.70;;;4.30;;
12986;SDS011;58897;51.960;5.582;2023-12-04T07:43:44;10.73;;;4.10;;
12986;SDS011;58897;51.960;5.582;2023-12-04T07:46:10;8.63;;;4.33;;
12986;SDS011;58897;51.960;5.582;2023-12-04T07:48:38;12.57;;;4.73;;
12986;SDS011;58897;51.960;5.582;2023-12-04T07:51:06;9.73;;;4.83;;
12986;SDS011;58897;51.960;5.582;2023-12-04T07:53:33;10.03;;;3.73;;
12986;SDS011;58897;51.960;5.582;2023-12-04T07:56:00;10.90;;;4.67;;
12986;SDS011;58897;51.960;5.582;2023-12-04T07:58:29;7.40;;;3.47;;
12986;SDS011;58897;51.960;5.582;2023-12-04T08:00:58;11.23;;;4.93;;
12986;SDS011;58897;51.960;5.582;2023-12-04T08:03:24;10.67;;;4.30;;
12986;SDS011;58897;51.960;5.582;2023-12-04T08:05:51;18.17;;;6.20;;
12986;SDS011;58897;51.960;5.582;2023-12-04T08:08:18;10.33;;;4.37;;
12986;SDS011;58897;51.960;5.582;2023-12-04T08:10:45;8.10;;;4.13;;
12986;SDS011;58897;51.960;5.582;2023-12-04T08:13:11;9.70;;;4.37;;
12986;SDS011;58897;51.960;5.582;2023-12-04T08:15:38;12.83;;;5.03;;
12986;SDS011;58897;51.960;5.582;2023-12-04T08:18:05;7.47;;;3.90;;
12986;SDS011;58897;51.960;5.582;2023-12-04T08:20:32;13.00;;;5.03;;
12986;SDS011;58897;51.960;5.582;2023-12-04T08:23:06;4.70;;;3.27;;
12986;SDS011;58897;51.960;5.582;2023-12-04T08:25:33;12.73;;;4.47;;
12986;SDS011;58897;51.960;5.582;2023-12-04T08:28:03;15.53;;;4.77;;
12986;SDS011;58897;51.960;5.582;2023-12-04T08:30:31;12.57;;;5.20;;
12986;SDS011;58897;51.960;5.582;2023-12-04T08:33:00;16.83;;;5.70;;
12986;SDS011;58897;51.960;5.582;2023-12-04T08:35:28;16.80;;;5.23;;
12986;SDS011;58897;51.960;5.582;2023-12-04T08:37:55;16.73;;;5.83;;
12986;SDS011;58897;51.960;5.582;2023-12-04T08:40:32;11.37;;;4.57;;
12986;SDS011;58897;51.960;5.582;2023-12-04T08:42:59;13.23;;;5.03;;
12986;SDS011;58897;51.960;5.582;2023-12-04T08:45:27;10.53;;;4.53;;
12986;SDS011;58897;51.960;5.582;2023-12-04T08:47:56;11.13;;;4.60;;
12986;SDS011;58897;51.960;5.582;2023-12-04T08:50:34;8.80;;;4.07;;
12986;SDS011;58897;51.960;5.582;2023-12-04T08:55:58;14.23;;;4.90;;
12986;SDS011;58897;51.960;5.582;2023-12-04T08:58:31;13.03;;;4.70;;
12986;SDS011;58897;51.960;5.582;2023-12-04T09:01:01;12.00;;;5.20;;
12986;SDS011;58897;51.960;5.582;2023-12-04T09:03:28;10.03;;;4.20;;
12986;SDS011;58897;51.960;5.582;2023-12-04T09:05:59;22.57;;;6.07;;
12986;SDS011;58897;51.960;5.582;2023-12-04T09:08:27;11.63;;;4.77;;
12986;SDS011;58897;51.960;5.582;2023-12-04T09:11:13;12.60;;;4.90;;
12986;SDS011;58897;51.960;5.582;2023-12-04T09:13:49;27.10;;;7.73;;
12986;SDS011;58897;51.960;5.582;2023-12-04T09:16:20;10.77;;;4.10;;
12986;SDS011;58897;51.960;5.582;2023-12-04T09:18:50;12.47;;;4.93;;
12986;SDS011;58897;51.960;5.582;2023-12-04T09:21:20;14.53;;;5.10;;
12986;SDS011;58897;51.960;5.582;2023-12-04T09:23:47;12.67;;;4.67;;
12986;SDS011;58897;51.960;5.582;2023-12-04T09:26:16;11.70;;;4.33;;
12986;SDS011;58897;51.960;5.582;2023-12-04T09:28:43;13.53;;;5.10;;
12986;SDS011;58897;51.960;5.582;2023-12-04T09:31:11;11.90;;;4.07;;
12986;SDS011;58897;51.960;5.582;2023-12-04T09:33:38;13.43;;;5.20;;
12986;SDS011;58897;51.960;5.582;2023-12-04T09:36:04;8.83;;;3.80;;
12986;SDS011;58897;51.960;5.582;2023-12-04T09:38:37;8.03;;;3.90;;
12986;SDS011;58897;51.960;5.582;2023-12-04T09:41:05;11.20;;;4.73;;
12986;SDS011;58897;51.960;5.582;2023-12-04T09:43:33;10.17;;;4.60;;
12986;SDS011;58897;51.960;5.582;2023-12-04T09:46:00;12.67;;;3.83;;
12986;SDS011;58897;51.960;5.582;2023-12-04T09:48:27;11.67;;;4.97;;
12986;SDS011;58897;51.960;5.582;2023-12-04T09:50:57;9.10;;;4.00;;
12986;SDS011;58897;51.960;5.582;2023-12-04T09:53:26;11.23;;;4.33;;
12986;SDS011;58897;51.960;5.582;2023-12-04T09:55:54;13.80;;;4.90;;
12986;SDS011;58897;51.960;5.582;2023-12-04T09:58:26;7.50;;;3.50;;
12986;SDS011;58897;51.960;5.582;2023-12-04T10:00:57;11.87;;;4.70;;
12986;SDS011;58897;51.960;5.582;2023-12-04T10:03:26;15.53;;;4.93;;
12986;SDS011;58897;51.960;5.582;2023-12-04T10:05:54;17.23;;;5.43;;
12986;SDS011;58897;51.960;5.582;2023-12-04T10:08:21;14.00;;;4.50;;
12986;SDS011;58897;51.960;5.582;2023-12-04T10:10:48;17.03;;;5.80;;
12986;SDS011;58897;51.960;5.582;2023-12-04T10:13:15;16.43;;;5.07;;
12986;SDS011;58897;51.960;5.582;2023-12-04T10:16:01;12.17;;;5.00;;
12986;SDS011;58897;51.960;5.582;2023-12-04T10:18:32;10.80;;;3.80;;
12986;SDS011;58897;51.960;5.582;2023-12-04T10:20:59;8.53;;;4.27;;
12986;SDS011;58897;51.960;5.582;2023-12-04T10:23:36;10.30;;;4.33;;
12986;SDS011;58897;51.960;5.582;2023-12-04T10:26:05;8.90;;;4.10;;
12986;SDS011;58897;51.960;5.582;2023-12-04T10:28:34;17.03;;;5.50;;
12986;SDS011;58897;51.960;5.582;2023-12-04T10:31:01;17.70;;;5.87;;
12986;SDS011;58897;51.960;5.582;2023-12-04T10:33:29;18.10;;;6.67;;
12986;SDS011;58897;51.960;5.582;2023-12-04T10:35:57;10.10;;;4.43;;
12986;SDS011;58897;51.960;5.582;2023-12-04T10:38:23;12.60;;;5.13;;
12986;SDS011;58897;51.960;5.582;2023-12-04T10:40:52;12.13;;;5.00;;
12986;SDS011;58897;51.960;5.582;2023-12-04T10:43:20;10.53;;;5.23;;
12986;SDS011;58897;51.960;5.582;2023-12-04T10:45:49;14.23;;;5.57;;
12986;SDS011;58897;51.960;5.582;2023-12-04T10:48:17;17.17;;;5.83;;
12986;SDS011;58897;51.960;5.582;2023-12-04T10:50:46;13.30;;;5.20;;
12986;SDS011;58897;51.960;5.582;2023-12-04T10:53:15;10.97;;;5.33;;
12986;SDS011;58897;51.960;5.582;2023-12-04T10:55:43;17.90;;;6.03;;
12986;SDS011;58897;51.960;5.582;2023-12-04T10:58:14;14.53;;;5.93;;
12986;SDS011;58897;51.960;5.582;2023-12-04T11:00:46;12.53;;;5.20;;
12986;SDS011;58897;51.960;5.582;2023-12-04T11:03:18;13.43;;;5.30;;
12986;SDS011;58897;51.960;5.582;2023-12-04T11:05:56;12.10;;;5.60;;
12986;SDS011;58897;51.960;5.582;2023-12-04T11:08:28;11.07;;;5.40;;
12986;SDS011;58897;51.960;5.582;2023-12-04T11:10:57;16.47;;;5.63;;
12986;SDS011;58897;51.960;5.582;2023-12-04T11:13:34;16.67;;;6.30;;
12986;SDS011;58897;51.960;5.582;2023-12-04T11:16:07;16.47;;;5.97;;
12986;SDS011;58897;51.960;5.582;2023-12-04T11:18:39;18.03;;;6.40;;
12986;SDS011;58897;51.960;5.582;2023-12-04T11:21:10;14.57;;;5.37;;
12986;SDS011;58897;51.960;5.582;2023-12-04T11:23:38;11.70;;;5.30;;
12986;SDS011;58897;51.960;5.582;2023-12-04T11:26:06;12.40;;;5.33;;
12986;SDS011;58897;51.960;5.582;2023-12-04T11:28:35;13.60;;;5.33;;
12986;SDS011;58897;51.960;5.582;2023-12-04T11:31:05;14.50;;;5.83;;
12986;SDS011;58897;51.960;5.582;2023-12-04T11:33:36;17.63;;;6.37;;
12986;SDS011;58897;51.960;5.582;2023-12-04T11:36:12;12.87;;;5.67;;
12986;SDS011;58897;51.960;5.582;2023-12-04T11:38:43;12.80;;;5.70;;
12986;SDS011;58897;51.960;5.582;2023-12-04T11:41:16;13.10;;;5.40;;
12986;SDS011;58897;51.960;5.582;2023-12-04T11:43:49;18.07;;;6.53;;
12986;SDS011;58897;51.960;5.582;2023-12-04T11:46:19;14.27;;;5.77;;
12986;SDS011;58897;51.960;5.582;2023-12-04T11:48:50;14.10;;;5.73;;
12986;SDS011;58897;51.960;5.582;2023-12-04T11:52:06;11.60;;;5.37;;
12986;SDS011;58897;51.960;5.582;2023-12-04T11:54:14;16.43;;;6.67;;
12986;SDS011;58897;51.960;5.582;2023-12-04T11:57:02;12.93;;;5.37;;
12986;SDS011;58897;51.960;5.582;2023-12-04T11:59:48;18.60;;;6.57;;
12986;SDS011;58897;51.960;5.582;2023-12-04T12:02:15;10.37;;;5.40;;
12986;SDS011;58897;51.960;5.582;2023-12-04T12:04:43;14.90;;;5.47;;
12986;SDS011;58897;51.960;5.582;2023-12-04T12:07:12;17.73;;;6.63;;
12986;SDS011;58897;51.960;5.582;2023-12-04T12:09:39;12.57;;;5.27;;
12986;SDS011;58897;51.960;5.582;2023-12-04T12:12:06;14.60;;;5.30;;
12986;SDS011;58897;51.960;5.582;2023-12-04T12:14:33;21.27;;;6.13;;
12986;SDS011;58897;51.960;5.582;2023-12-04T12:17:00;13.77;;;5.00;;
12986;SDS011;58897;51.960;5.582;2023-12-04T12:19:30;8.83;;;4.27;;
12986;SDS011;58897;51.960;5.582;2023-12-04T12:22:00;14.73;;;5.37;;
12986;SDS011;58897;51.960;5.582;2023-12-04T12:24:39;12.97;;;5.77;;
12986;SDS011;58897;51.960;5.582;2023-12-04T12:27:06;15.13;;;6.20;;
12986;SDS011;58897;51.960;5.582;2023-12-04T12:29:34;14.27;;;5.43;;
12986;SDS011;58897;51.960;5.582;2023-12-04T12:32:01;14.23;;;5.63;;
12986;SDS011;58897;51.960;5.582;2023-12-04T12:34:28;14.73;;;4.70;;
12986;SDS011;58897;51.960;5.582;2023-12-04T12:36:54;11.83;;;5.40;;
12986;SDS011;58897;51.960;5.582;2023-12-04T12:39:22;10.63;;;4.70;;
12986;SDS011;58897;51.960;5.582;2023-12-04T12:41:49;18.77;;;7.23;;
12986;SDS011;58897;51.960;5.582;2023-12-04T12:44:16;16.97;;;5.97;;
12986;SDS011;58897;51.960;5.582;2023-12-04T12:46:47;13.77;;;5.63;;
12986;SDS011;58897;51.960;5.582;2023-12-04T12:49:19;13.47;;;5.00;;
12986;SDS011;58897;51.960;5.582;2023-12-04T12:52:01;10.97;;;4.93;;
12986;SDS011;58897;51.960;5.582;2023-12-04T12:54:30;14.23;;;5.53;;
12986;SDS011;58897;51.960;5.582;2023-12-04T12:56:59;13.63;;;5.90;;
12986;SDS011;58897;51.960;5.582;2023-12-04T12:59:27;18.77;;;6.93;;
12986;SDS011;58897;51.960;5.582;2023-12-04T13:01:54;14.83;;;6.07;;
12986;SDS011;58897;51.960;5.582;2023-12-04T13:04:23;15.97;;;6.27;;
12986;SDS011;58897;51.960;5.582;2023-12-04T13:06:50;16.53;;;5.90;;
12986;SDS011;58897;51.960;5.582;2023-12-04T13:09:17;10.77;;;5.77;;
12986;SDS011;58897;51.960;5.582;2023-12-04T13:11:45;11.23;;;5.13;;
12986;SDS011;58897;51.960;5.582;2023-12-04T13:14:12;14.53;;;5.83;;
12986;SDS011;58897;51.960;5.582;2023-12-04T13:16:39;21.20;;;6.63;;
12986;SDS011;58897;51.960;5.582;2023-12-04T13:19:06;13.20;;;5.17;;
12986;SDS011;58897;51.960;5.582;2023-12-04T13:21:33;20.70;;;6.50;;
12986;SDS011;58897;51.960;5.582;2023-12-04T13:24:00;15.43;;;6.00;;
12986;SDS011;58897;51.960;5.582;2023-12-04T13:26:26;12.67;;;5.80;;
12986;SDS011;58897;51.960;5.582;2023-12-04T13:28:53;11.33;;;5.03;;
12986;SDS011;58897;51.960;5.582;2023-12-04T13:31:20;8.67;;;4.73;;
12986;SDS011;58897;51.960;5.582;2023-12-04T13:33:52;14.43;;;6.20;;
12986;SDS011;58897;51.960;5.582;2023-12-04T13:36:19;11.93;;;5.40;;
12986;SDS011;58897;51.960;5.582;2023-12-04T13:38:46;20.40;;;6.57;;
12986;SDS011;58897;51.960;5.582;2023-12-04T13:41:13;29.77;;;7.17;;
12986;SDS011;58897;51.960;5.582;2023-12-04T13:43:58;14.77;;;5.30;;
12986;SDS011;58897;51.960;5.582;2023-12-04T13:46:27;16.17;;;6.27;;
12986;SDS011;58897;51.960;5.582;2023-12-04T13:48:54;11.37;;;4.60;;
12986;SDS011;58897;51.960;5.582;2023-12-04T13:51:20;17.57;;;6.33;;
12986;SDS011;58897;51.960;5.582;2023-12-04T13:53:47;25.10;;;7.30;;
12986;SDS011;58897;51.960;5.582;2023-12-04T13:56:16;17.73;;;6.57;;
12986;SDS011;58897;51.960;5.582;2023-12-04T13:59:01;22.63;;;7.70;;
12986;SDS011;58897;51.960;5.582;2023-12-04T14:01:30;17.40;;;6.47;;
12986;SDS011;58897;51.960;5.582;2023-12-04T14:03:57;16.30;;;6.37;;
12986;SDS011;58897;51.960;5.582;2023-12-04T14:06:28;20.73;;;6.77;;
12986;SDS011;58897;51.960;5.582;2023-12-04T14:08:56;26.33;;;8.53;;
12986;SDS011;58897;51.960;5.582;2023-12-04T14:11:23;12.67;;;5.63;;
12986;SDS011;58897;51.960;5.582;2023-12-04T14:13:50;20.97;;;6.73;;
12986;SDS011;58897;51.960;5.582;2023-12-04T14:16:17;18.67;;;6.87;;
12986;SDS011;58897;51.960;5.582;2023-12-04T14:18:44;16.43;;;6.30;;
12986;SDS011;58897;51.960;5.582;2023-12-04T14:21:10;13.93;;;5.57;;
12986;SDS011;58897;51.960;5.582;2023-12-04T14:23:37;21.93;;;7.30;;
12986;SDS011;58897;51.960;5.582;2023-12-04T14:26:03;13.90;;;5.43;;
12986;SDS011;58897;51.960;5.582;2023-12-04T14:28:30;12.37;;;5.63;;
12986;SDS011;58897;51.960;5.582;2023-12-04T14:31:07;12.63;;;5.57;;
12986;SDS011;58897;51.960;5.582;2023-12-04T14:33:34;17.93;;;6.30;;
12986;SDS011;58897;51.960;5.582;2023-12-04T14:36:03;17.70;;;6.27;;
12986;SDS011;58897;51.960;5.582;2023-12-04T14:38:30;15.93;;;6.27;;
12986;SDS011;58897;51.960;5.582;2023-12-04T14:40:57;18.90;;;6.70;;
12986;SDS011;58897;51.960;5.582;2023-12-04T14:43:25;15.33;;;5.97;;
12986;SDS011;58897;51.960;5.582;2023-12-04T14:45:52;16.07;;;5.63;;